Kingsland, AR (71652)

7:55 PM CDT on July 31, 2014 (GMT -0500)
Grider (KPBF) Elev 207 ft | 34.17 °N, 91.93 °W | Change Station

Current weather conditions updated 1 hour ago

Overcast
Overcast
73 °F
Feels Like 73 °F
N
5
Wind Variable Wind from East

Tomorrow is forecast to be Warmer than today. A few morning showers.

Today
High -- | Low -- °F
--% Chance of Precip.
Yesterday
High -- | Low -- °F
Precip. -- in
6:20 AM 8:10 PM
Waxing Crescent, 22% visible
Pressure 30.05 in
Visibility 10.0 miles
Clouds Few 5000 ft
Overcast 8500 ft
Dew Point 67 °F
Humidity 81%
Rainfall 0.25 in
Snow Depth Not available.
UV 0 out of 12
Pollen .60 out of 12
Air Quality Not available.
Flu Activity Not available.
METAR KPBF 312353Z AUTO 09004KT 10SM FEW050 OVC085 23/19 A3005 RMK AO2 RAB08E44 SLP174 P0000 60002 T02280194 10244 20228 58006

More Conditions Fewer Conditions

Pressure 30.05 in
Visibility 10.0 miles
Clouds Few 5000 ft
Overcast 8500 ft
Dew Point 67 °F
Humidity 81%
Rainfall 0.25 in
Snow Depth Not available.
UV 0 out of 12
Pollen .60 out of 12
Air Quality Not available.
Flu Activity Not available.
METAR KPBF 312353Z AUTO 09004KT 10SM FEW050 OVC085 23/19 A3005 RMK AO2 RAB08E44 SLP174 P0000 60002 T02280194 10244 20228 58006

More Conditions Fewer Conditions

10-Day Weather Forecast

Almanac

Astronomy

Jul. 31, 2014 Rise Set
Actual Time 6:20 AM CDT 8:10 PM CDT
Civil Twilight 5:52 AM CDT 8:37 PM CDT
Nautical Twilight 5:19 AM CDT 9:10 PM CDT
Astronomical Twilight 4:44 AM CDT 9:46 PM CDT
Moon 10:33 AM CDT (7/31) 10:39 PM CDT (7/31)
Length of Visible Light 14h 45m
Length of Day
13h 50m
Tomorrow will be 1m 33s shorter.
Waxing Crescent, 22% of the Moon is Illuminated
Today
Waxing Crescent
Aug 3
First Quarter
Aug 10
Full
Aug 17
Last Quarter
Aug 25
New

Today's Extremes

State Highs State Lows

Community

WunderPhotos

Upload Photos

1,739,477 photos uploaded!

Nearby

Snow Depth

Station Depth Elevation
No new snow has been reported.

Earthquake Activity

City Distance Mag. Time & Date
No recent earthquake activity has been reported nearby.
Minimum magnitude displayed is 2.5.

Coastal Water Temperatures

Place Temperature
No Stations Reporting

Nearby Weather Stations

Station Location Temp. Heat Index Dew Point Humidity Wind Precip. Elev Updated Type
MesoWest RISON , Rison, AR 85 °F 82 °F - - North  at  - 0.00 in / hr 204 ft 4:50 PM CDT MADIS
MesoWest THRNTN , Thornton, AR 68 °F - - - North  at  - 0.00 in / hr 303 ft 5:35 PM CDT MADIS
MesoWest RONE , Pine Bluff, AR 72 °F - - - North  at  - 0.00 in / hr 283 ft 6:20 PM CDT MADIS

Show More Stations Show Fewer Stations